sensor_id;sensor_type;location;lat;lon;timestamp;pressure;altitude;pressure_sealevel;temperature;humidity
16030;BME280;34770;49.272;11.070;2024-02-26T00:02:16;96061.22;;;2.67;86.62
16030;BME280;34770;49.272;11.070;2024-02-26T00:04:42;96056.53;;;2.60;88.96
16030;BME280;34770;49.272;11.070;2024-02-26T00:07:07;96057.13;;;2.63;88.99
16030;BME280;34770;49.272;11.070;2024-02-26T00:09:33;96055.16;;;2.65;88.99
16030;BME280;34770;49.272;11.070;2024-02-26T00:12:02;96056.28;;;2.63;88.92
16030;BME280;34770;49.272;11.070;2024-02-26T00:14:29;96050.22;;;2.61;88.47
16030;BME280;34770;49.272;11.070;2024-02-26T00:16:54;96060.91;;;2.61;89.09
16030;BME280;34770;49.272;11.070;2024-02-26T00:19:20;96055.44;;;2.62;89.48
16030;BME280;34770;49.272;11.070;2024-02-26T00:21:45;96044.53;;;2.54;88.87
16030;BME280;34770;49.272;11.070;2024-02-26T00:24:11;96048.53;;;2.60;88.94
16030;BME280;34770;49.272;11.070;2024-02-26T00:26:36;96042.44;;;2.37;89.87
16030;BME280;34770;49.272;11.070;2024-02-26T00:29:02;96014.69;;;2.28;89.90
16030;BME280;34770;49.272;11.070;2024-02-26T00:31:27;96048.84;;;2.46;90.03
16030;BME280;34770;49.272;11.070;2024-02-26T00:33:53;96043.75;;;2.43;90.07
16030;BME280;34770;49.272;11.070;2024-02-26T00:36:18;96050.72;;;2.34;88.99
16030;BME280;34770;49.272;11.070;2024-02-26T00:38:44;96027.63;;;2.33;89.53
16030;BME280;34770;49.272;11.070;2024-02-26T00:41:11;96036.25;;;2.37;89.53
16030;BME280;34770;49.272;11.070;2024-02-26T00:43:37;96020.28;;;2.25;88.97
16030;BME280;34770;49.272;11.070;2024-02-26T00:46:04;96036.41;;;2.35;89.62
16030;BME280;34770;49.272;11.070;2024-02-26T00:48:30;96034.56;;;2.36;89.08
16030;BME280;34770;49.272;11.070;2024-02-26T00:50:55;96029.75;;;2.29;88.26
16030;BME280;34770;49.272;11.070;2024-02-26T00:53:21;96044.00;;;2.19;88.32
16030;BME280;34770;49.272;11.070;2024-02-26T00:55:46;96037.69;;;2.20;88.83
16030;BME280;34770;49.272;11.070;2024-02-26T00:58:11;96039.25;;;2.22;88.56
16030;BME280;34770;49.272;11.070;2024-02-26T01:00:37;96025.63;;;2.25;88.52
16030;BME280;34770;49.272;11.070;2024-02-26T01:03:03;96022.25;;;2.23;87.92
16030;BME280;34770;49.272;11.070;2024-02-26T01:05:29;96039.97;;;2.24;87.30
16030;BME280;34770;49.272;11.070;2024-02-26T01:07:55;96043.06;;;2.09;86.04
16030;BME280;34770;49.272;11.070;2024-02-26T01:10:20;96042.72;;;2.02;86.55
16030;BME280;34770;49.272;11.070;2024-02-26T01:12:46;96038.03;;;1.95;88.14
16030;BME280;34770;49.272;11.070;2024-02-26T01:15:11;96042.19;;;1.88;87.09
16030;BME280;34770;49.272;11.070;2024-02-26T01:17:36;96033.72;;;1.71;87.61
16030;BME280;34770;49.272;11.070;2024-02-26T01:20:02;96036.66;;;1.68;87.55
16030;BME280;34770;49.272;11.070;2024-02-26T01:22:27;96043.72;;;1.58;87.17
16030;BME280;34770;49.272;11.070;2024-02-26T01:24:53;96049.56;;;1.52;87.67
16030;BME280;34770;49.272;11.070;2024-02-26T01:27:18;96050.66;;;1.50;87.89
16030;BME280;34770;49.272;11.070;2024-02-26T01:29:44;96041.72;;;1.40;87.56
16030;BME280;34770;49.272;11.070;2024-02-26T01:32:10;96024.97;;;1.27;87.79
16030;BME280;34770;49.272;11.070;2024-02-26T01:34:35;96027.41;;;1.30;87.98
16030;BME280;34770;49.272;11.070;2024-02-26T01:37:02;96034.06;;;1.35;87.53
16030;BME280;34770;49.272;11.070;2024-02-26T01:39:27;96034.81;;;1.37;87.67
16030;BME280;34770;49.272;11.070;2024-02-26T01:41:54;96018.19;;;1.34;87.95
16030;BME280;34770;49.272;11.070;2024-02-26T01:44:19;96025.22;;;1.46;89.07
16030;BME280;34770;49.272;11.070;2024-02-26T01:46:45;96033.03;;;1.58;89.72
16030;BME280;34770;49.272;11.070;2024-02-26T01:49:12;96024.28;;;1.67;90.12
16030;BME280;34770;49.272;11.070;2024-02-26T01:51:39;96018.81;;;1.69;89.50
16030;BME280;34770;49.272;11.070;2024-02-26T01:54:08;96008.56;;;1.53;90.07
16030;BME280;34770;49.272;11.070;2024-02-26T01:56:34;96016.28;;;1.67;90.43
16030;BME280;34770;49.272;11.070;2024-02-26T01:59:01;96013.69;;;1.77;90.73
16030;BME280;34770;49.272;11.070;2024-02-26T02:01:29;96004.06;;;1.65;88.88
16030;BME280;34770;49.272;11.070;2024-02-26T02:03:58;96003.81;;;1.68;90.03
16030;BME280;34770;49.272;11.070;2024-02-26T02:06:24;96017.91;;;1.91;90.40
16030;BME280;34770;49.272;11.070;2024-02-26T02:08:50;96002.16;;;1.88;90.66
16030;BME280;34770;49.272;11.070;2024-02-26T02:11:16;95994.59;;;1.93;90.39
16030;BME280;34770;49.272;11.070;2024-02-26T02:13:42;96003.06;;;1.98;90.68
16030;BME280;34770;49.272;11.070;2024-02-26T02:16:07;96017.13;;;2.00;90.95
16030;BME280;34770;49.272;11.070;2024-02-26T02:18:33;95978.88;;;1.79;91.33
16030;BME280;34770;49.272;11.070;2024-02-26T02:21:02;96008.75;;;2.04;92.14
16030;BME280;34770;49.272;11.070;2024-02-26T02:23:27;96024.25;;;2.31;93.41
16030;BME280;34770;49.272;11.070;2024-02-26T02:25:53;96021.25;;;2.45;93.96
16030;BME280;34770;49.272;11.070;2024-02-26T02:28:20;96017.81;;;2.54;94.68
16030;BME280;34770;49.272;11.070;2024-02-26T02:30:46;96019.63;;;2.54;94.46
16030;BME280;34770;49.272;11.070;2024-02-26T02:33:12;96018.41;;;2.58;95.26
16030;BME280;34770;49.272;11.070;2024-02-26T02:35:38;96022.94;;;2.67;95.30
16030;BME280;34770;49.272;11.070;2024-02-26T02:38:03;96016.59;;;2.58;95.18
16030;BME280;34770;49.272;11.070;2024-02-26T02:40:29;96010.56;;;2.66;95.63
16030;BME280;34770;49.272;11.070;2024-02-26T02:42:54;96023.28;;;2.73;95.80
16030;BME280;34770;49.272;11.070;2024-02-26T02:45:20;96016.53;;;2.79;95.01
16030;BME280;34770;49.272;11.070;2024-02-26T02:47:45;95999.34;;;2.72;95.39
16030;BME280;34770;49.272;11.070;2024-02-26T02:50:11;96017.13;;;2.82;94.87
16030;BME280;34770;49.272;11.070;2024-02-26T02:52:36;96011.38;;;2.87;95.11
16030;BME280;34770;49.272;11.070;2024-02-26T02:55:02;96010.53;;;2.86;94.81
16030;BME280;34770;49.272;11.070;2024-02-26T02:57:27;95999.66;;;2.78;93.99
16030;BME280;34770;49.272;11.070;2024-02-26T02:59:53;96012.94;;;2.89;93.80
16030;BME280;34770;49.272;11.070;2024-02-26T03:02:19;96001.63;;;2.76;93.54
16030;BME280;34770;49.272;11.070;2024-02-26T03:04:44;96012.22;;;2.87;93.79
16030;BME280;34770;49.272;11.070;2024-02-26T03:07:10;96006.88;;;2.87;93.34
16030;BME280;34770;49.272;11.070;2024-02-26T03:09:35;96009.28;;;2.90;93.41
16030;BME280;34770;49.272;11.070;2024-02-26T03:12:00;95987.84;;;2.81;93.21
16030;BME280;34770;49.272;11.070;2024-02-26T03:14:26;95995.22;;;2.98;93.15
16030;BME280;34770;49.272;11.070;2024-02-26T03:16:55;96000.84;;;2.95;93.08
16030;BME280;34770;49.272;11.070;2024-02-26T03:19:20;96004.63;;;2.92;93.52
16030;BME280;34770;49.272;11.070;2024-02-26T03:21:46;96012.41;;;2.96;93.89
16030;BME280;34770;49.272;11.070;2024-02-26T03:24:12;96010.59;;;2.96;95.01
16030;BME280;34770;49.272;11.070;2024-02-26T03:26:38;95997.00;;;3.09;95.39
16030;BME280;34770;49.272;11.070;2024-02-26T03:29:04;95995.38;;;2.97;94.36
16030;BME280;34770;49.272;11.070;2024-02-26T03:31:29;96017.38;;;3.00;95.38
16030;BME280;34770;49.272;11.070;2024-02-26T03:33:54;96013.16;;;3.07;95.64
16030;BME280;34770;49.272;11.070;2024-02-26T03:36:20;96007.75;;;2.98;95.09
16030;BME280;34770;49.272;11.070;2024-02-26T03:38:47;96003.13;;;3.00;95.38
16030;BME280;34770;49.272;11.070;2024-02-26T03:41:12;95986.47;;;2.86;95.64
16030;BME280;34770;49.272;11.070;2024-02-26T03:43:38;96008.59;;;2.98;95.31
16030;BME280;34770;49.272;11.070;2024-02-26T03:46:03;96008.06;;;2.95;94.98
16030;BME280;34770;49.272;11.070;2024-02-26T03:48:29;96007.31;;;2.92;94.45
16030;BME280;34770;49.272;11.070;2024-02-26T03:50:54;96017.81;;;2.75;93.10
16030;BME280;34770;49.272;11.070;2024-02-26T03:53:20;96000.19;;;2.72;93.79
16030;BME280;34770;49.272;11.070;2024-02-26T03:55:45;96005.94;;;2.68;92.41
16030;BME280;34770;49.272;11.070;2024-02-26T03:58:12;96007.75;;;2.67;92.10
16030;BME280;34770;49.272;11.070;2024-02-26T04:00:38;95994.34;;;2.58;93.25
16030;BME280;34770;49.272;11.070;2024-02-26T04:03:03;95998.31;;;2.63;93.85
16030;BME280;34770;49.272;11.070;2024-02-26T04:05:29;96013.00;;;2.78;94.40
16030;BME280;34770;49.272;11.070;2024-02-26T04:07:54;95986.50;;;2.66;94.04
16030;BME280;34770;49.272;11.070;2024-02-26T04:10:19;96019.38;;;2.77;93.96
16030;BME280;34770;49.272;11.070;2024-02-26T04:12:45;96011.88;;;2.71;93.47
16030;BME280;34770;49.272;11.070;2024-02-26T04:15:11;96009.13;;;2.62;93.22
16030;BME280;34770;49.272;11.070;2024-02-26T04:17:37;96023.53;;;2.70;93.40
16030;BME280;34770;49.272;11.070;2024-02-26T04:20:03;96021.00;;;2.69;93.20
16030;BME280;34770;49.272;11.070;2024-02-26T04:22:30;96016.44;;;2.60;92.92
16030;BME280;34770;49.272;11.070;2024-02-26T04:24:56;96025.91;;;2.64;92.97
16030;BME280;34770;49.272;11.070;2024-02-26T04:27:21;96027.28;;;2.58;92.69
16030;BME280;34770;49.272;11.070;2024-02-26T04:29:47;96026.81;;;2.53;92.99
16030;BME280;34770;49.272;11.070;2024-02-26T04:32:12;96014.75;;;2.38;92.69
16030;BME280;34770;49.272;11.070;2024-02-26T04:34:38;96030.72;;;2.49;92.05
16030;BME280;34770;49.272;11.070;2024-02-26T04:37:03;96038.84;;;2.48;92.18
16030;BME280;34770;49.272;11.070;2024-02-26T04:39:28;96030.00;;;2.47;91.54
16030;BME280;34770;49.272;11.070;2024-02-26T04:41:54;96033.06;;;2.43;91.72
16030;BME280;34770;49.272;11.070;2024-02-26T04:44:19;96008.81;;;2.34;91.27
16030;BME280;34770;49.272;11.070;2024-02-26T04:46:45;96019.84;;;2.41;91.44
16030;BME280;34770;49.272;11.070;2024-02-26T04:49:10;96036.34;;;2.46;91.21
16030;BME280;34770;49.272;11.070;2024-02-26T04:51:36;96031.00;;;2.46;91.50
16030;BME280;34770;49.272;11.070;2024-02-26T04:54:02;96018.28;;;2.39;91.91
16030;BME280;34770;49.272;11.070;2024-02-26T04:56:28;96014.25;;;2.44;92.36
16030;BME280;34770;49.272;11.070;2024-02-26T04:58:53;96026.69;;;2.55;91.76
16030;BME280;34770;49.272;11.070;2024-02-26T05:01:18;96031.88;;;2.56;92.50
16030;BME280;34770;49.272;11.070;2024-02-26T05:03:44;96018.47;;;2.47;93.22
16030;BME280;34770;49.272;11.070;2024-02-26T05:06:10;96037.97;;;2.58;93.72
16030;BME280;34770;49.272;11.070;2024-02-26T05:08:35;96035.53;;;2.76;94.87
16030;BME280;34770;49.272;11.070;2024-02-26T05:11:04;96037.56;;;2.83;95.49
16030;BME280;34770;49.272;11.070;2024-02-26T05:13:30;96043.47;;;2.87;95.00
16030;BME280;34770;49.272;11.070;2024-02-26T05:15:55;96041.53;;;2.89;94.17
16030;BME280;34770;49.272;11.070;2024-02-26T05:18:21;96035.59;;;2.85;93.73
16030;BME280;34770;49.272;11.070;2024-02-26T05:20:47;96030.75;;;2.79;93.47
16030;BME280;34770;49.272;11.070;2024-02-26T05:23:12;96049.22;;;2.82;93.47
16030;BME280;34770;49.272;11.070;2024-02-26T05:25:38;96048.38;;;2.82;93.71
16030;BME280;34770;49.272;11.070;2024-02-26T05:28:04;96037.91;;;2.69;93.79
16030;BME280;34770;49.272;11.070;2024-02-26T05:30:29;96059.13;;;2.91;94.66
16030;BME280;34770;49.272;11.070;2024-02-26T05:32:55;96037.47;;;2.95;95.28
16030;BME280;34770;49.272;11.070;2024-02-26T05:35:20;96063.56;;;3.12;94.68
16030;BME280;34770;49.272;11.070;2024-02-26T05:37:45;96045.00;;;3.10;95.26
16030;BME280;34770;49.272;11.070;2024-02-26T05:40:11;96057.84;;;3.16;94.58
16030;BME280;34770;49.272;11.070;2024-02-26T05:42:37;96063.38;;;3.24;94.65
16030;BME280;34770;49.272;11.070;2024-02-26T05:45:03;96061.53;;;3.25;94.75
16030;BME280;34770;49.272;11.070;2024-02-26T05:47:32;96059.19;;;3.41;94.38
16030;BME280;34770;49.272;11.070;2024-02-26T05:49:58;96050.75;;;3.36;94.38
16030;BME280;34770;49.272;11.070;2024-02-26T05:52:24;96057.22;;;3.33;93.00
16030;BME280;34770;49.272;11.070;2024-02-26T05:54:50;96054.69;;;3.41;94.58
16030;BME280;34770;49.272;11.070;2024-02-26T05:57:15;96054.97;;;3.38;94.57
16030;BME280;34770;49.272;11.070;2024-02-26T05:59:41;96056.34;;;3.33;94.81
16030;BME280;34770;49.272;11.070;2024-02-26T06:02:06;96053.00;;;3.40;94.29
16030;BME280;34770;49.272;11.070;2024-02-26T06:04:31;96049.63;;;3.38;94.37
16030;BME280;34770;49.272;11.070;2024-02-26T06:06:57;96051.03;;;3.42;94.55
16030;BME280;34770;49.272;11.070;2024-02-26T06:09:23;96068.41;;;3.48;94.21
16030;BME280;34770;49.272;11.070;2024-02-26T06:11:48;96052.72;;;3.34;93.78
16030;BME280;34770;49.272;11.070;2024-02-26T06:14:13;96051.81;;;3.24;92.94
16030;BME280;34770;49.272;11.070;2024-02-26T06:16:43;96065.41;;;3.41;94.11
16030;BME280;34770;49.272;11.070;2024-02-26T06:19:08;96069.38;;;3.47;94.82
16030;BME280;34770;49.272;11.070;2024-02-26T06:21:34;96067.28;;;3.50;94.20
16030;BME280;34770;49.272;11.070;2024-02-26T06:24:01;96072.06;;;3.57;94.21
16030;BME280;34770;49.272;11.070;2024-02-26T06:26:26;96069.22;;;3.48;94.33
16030;BME280;34770;49.272;11.070;2024-02-26T06:28:54;96077.56;;;3.55;93.02
16030;BME280;34770;49.272;11.070;2024-02-26T06:31:20;96068.88;;;3.32;92.28
16030;BME280;34770;49.272;11.070;2024-02-26T06:33:47;96079.75;;;3.31;92.83
16030;BME280;34770;49.272;11.070;2024-02-26T06:36:13;96092.56;;;3.37;92.82
16030;BME280;34770;49.272;11.070;2024-02-26T06:38:38;96099.19;;;3.42;92.83
16030;BME280;34770;49.272;11.070;2024-02-26T06:41:03;96094.97;;;3.40;92.66
16030;BME280;34770;49.272;11.070;2024-02-26T06:43:29;96080.75;;;3.39;92.30
16030;BME280;34770;49.272;11.070;2024-02-26T06:45:54;96089.06;;;3.36;91.96
16030;BME280;34770;49.272;11.070;2024-02-26T06:48:20;96087.63;;;3.32;92.16
16030;BME280;34770;49.272;11.070;2024-02-26T06:50:45;96092.22;;;3.21;91.45
16030;BME280;34770;49.272;11.070;2024-02-26T06:53:11;96086.00;;;3.20;92.56
16030;BME280;34770;49.272;11.070;2024-02-26T06:55:36;96101.53;;;3.26;92.30
16030;BME280;34770;49.272;11.070;2024-02-26T06:58:05;96104.19;;;3.17;91.84
16030;BME280;34770;49.272;11.070;2024-02-26T07:00:30;96117.28;;;3.20;93.34
16030;BME280;34770;49.272;11.070;2024-02-26T07:02:56;96112.16;;;3.37;94.16
16030;BME280;34770;49.272;11.070;2024-02-26T07:05:21;96129.06;;;3.38;94.77
16030;BME280;34770;49.272;11.070;2024-02-26T07:07:47;96134.75;;;3.54;94.44
16030;BME280;34770;49.272;11.070;2024-02-26T07:10:12;96148.03;;;3.56;94.11
16030;BME280;34770;49.272;11.070;2024-02-26T07:12:38;96139.47;;;3.71;93.99
16030;BME280;34770;49.272;11.070;2024-02-26T07:15:04;96139.84;;;3.87;94.52
16030;BME280;34770;49.272;11.070;2024-02-26T07:17:32;96137.44;;;3.84;92.36
16030;BME280;34770;49.272;11.070;2024-02-26T07:19:59;96138.13;;;3.86;90.94
16030;BME280;34770;49.272;11.070;2024-02-26T07:22:24;96129.22;;;3.76;91.70
16030;BME280;34770;49.272;11.070;2024-02-26T07:24:50;96115.84;;;3.86;91.40
16030;BME280;34770;49.272;11.070;2024-02-26T07:27:16;96108.09;;;3.83;91.31
16030;BME280;34770;49.272;11.070;2024-02-26T07:29:43;96115.16;;;3.93;91.21
16030;BME280;34770;49.272;11.070;2024-02-26T07:32:08;96101.22;;;3.90;92.75
16030;BME280;34770;49.272;11.070;2024-02-26T07:34:34;96127.94;;;4.20;93.26
16030;BME280;34770;49.272;11.070;2024-02-26T07:36:59;96120.88;;;4.38;93.45
16030;BME280;34770;49.272;11.070;2024-02-26T07:39:24;96127.97;;;4.49;92.13
16030;BME280;34770;49.272;11.070;2024-02-26T07:41:50;96127.25;;;4.66;92.55
16030;BME280;34770;49.272;11.070;2024-02-26T07:44:18;96117.66;;;4.63;91.99
16030;BME280;34770;49.272;11.070;2024-02-26T07:46:44;96140.94;;;4.82;88.07
16030;BME280;34770;49.272;11.070;2024-02-26T07:49:09;96131.19;;;4.81;86.93
16030;BME280;34770;49.272;11.070;2024-02-26T07:51:35;96146.28;;;4.92;87.03
16030;BME280;34770;49.272;11.070;2024-02-26T07:54:00;96136.00;;;4.87;86.91
16030;BME280;34770;49.272;11.070;2024-02-26T07:56:26;96144.31;;;5.03;84.80
16030;BME280;34770;49.272;11.070;2024-02-26T07:58:51;96157.00;;;5.11;83.87
16030;BME280;34770;49.272;11.070;2024-02-26T08:01:17;96149.69;;;5.03;84.09
16030;BME280;34770;49.272;11.070;2024-02-26T08:03:42;96166.75;;;5.12;83.86
16030;BME280;34770;49.272;11.070;2024-02-26T08:06:08;96168.59;;;5.11;84.10
16030;BME280;34770;49.272;11.070;2024-02-26T08:08:34;96176.50;;;5.22;83.51
16030;BME280;34770;49.272;11.070;2024-02-26T08:10:59;96169.97;;;5.25;82.28
16030;BME280;34770;49.272;11.070;2024-02-26T08:13:25;96181.56;;;5.35;82.41
16030;BME280;34770;49.272;11.070;2024-02-26T08:15:51;96175.06;;;5.47;81.80
16030;BME280;34770;49.272;11.070;2024-02-26T08:18:17;96178.09;;;5.62;81.07
16030;BME280;34770;49.272;11.070;2024-02-26T08:20:43;96171.84;;;5.80;79.21
16030;BME280;34770;49.272;11.070;2024-02-26T08:23:08;96183.78;;;6.05;78.84
16030;BME280;34770;49.272;11.070;2024-02-26T08:25:34;96172.53;;;6.19;77.65
16030;BME280;34770;49.272;11.070;2024-02-26T08:27:59;96166.28;;;6.28;77.56
16030;BME280;34770;49.272;11.070;2024-02-26T08:30:25;96177.97;;;6.55;77.23
16030;BME280;34770;49.272;11.070;2024-02-26T08:32:50;96183.31;;;6.64;74.59
16030;BME280;34770;49.272;11.070;2024-02-26T08:35:16;96171.56;;;6.38;75.61
16030;BME280;34770;49.272;11.070;2024-02-26T08:37:45;96179.22;;;6.43;74.86
16030;BME280;34770;49.272;11.070;2024-02-26T08:40:11;96158.91;;;6.30;73.82
16030;BME280;34770;49.272;11.070;2024-02-26T08:42:37;96168.84;;;6.20;77.00
16030;BME280;34770;49.272;11.070;2024-02-26T08:45:02;96179.09;;;6.34;76.05
16030;BME280;34770;49.272;11.070;2024-02-26T08:47:28;96172.44;;;6.38;75.36
16030;BME280;34770;49.272;11.070;2024-02-26T08:49:53;96167.41;;;6.71;75.39
16030;BME280;34770;49.272;11.070;2024-02-26T08:52:19;96164.56;;;6.90;74.53
16030;BME280;34770;49.272;11.070;2024-02-26T08:54:45;96170.09;;;6.88;73.90
16030;BME280;34770;49.272;11.070;2024-02-26T08:57:10;96169.06;;;6.54;75.26
16030;BME280;34770;49.272;11.070;2024-02-26T08:59:35;96161.88;;;6.72;74.42
16030;BME280;34770;49.272;11.070;2024-02-26T09:02:01;96169.88;;;6.82;73.01
16030;BME280;34770;49.272;11.070;2024-02-26T09:04:26;96155.03;;;6.78;71.88
16030;BME280;34770;49.272;11.070;2024-02-26T09:06:53;96174.94;;;6.85;71.54
16030;BME280;34770;49.272;11.070;2024-02-26T09:09:19;96166.78;;;7.12;71.06
16030;BME280;34770;49.272;11.070;2024-02-26T09:11:45;96154.97;;;7.31;69.68
16030;BME280;34770;49.272;11.070;2024-02-26T09:14:11;96146.44;;;7.35;70.38
16030;BME280;34770;49.272;11.070;2024-02-26T09:16:37;96158.13;;;7.70;69.16
16030;BME280;34770;49.272;11.070;2024-02-26T09:19:02;96161.66;;;7.96;67.91
16030;BME280;34770;49.272;11.070;2024-02-26T09:21:28;96125.06;;;7.93;68.04
16030;BME280;34770;49.272;11.070;2024-02-26T09:23:53;96129.78;;;8.25;67.79
16030;BME280;34770;49.272;11.070;2024-02-26T09:26:19;96127.63;;;8.37;67.19
16030;BME280;34770;49.272;11.070;2024-02-26T09:28:45;96129.69;;;8.51;66.61
16030;BME280;34770;49.272;11.070;2024-02-26T09:31:10;96137.47;;;8.62;63.51
16030;BME280;34770;49.272;11.070;2024-02-26T09:33:36;96139.91;;;8.89;61.89
16030;BME280;34770;49.272;11.070;2024-02-26T09:36:04;96139.91;;;8.97;60.41
16030;BME280;34770;49.272;11.070;2024-02-26T09:38:29;96149.56;;;9.24;60.69
16030;BME280;34770;49.272;11.070;2024-02-26T09:40:58;96141.44;;;9.64;59.74
16030;BME280;34770;49.272;11.070;2024-02-26T09:43:26;96143.91;;;9.90;57.11
16030;BME280;34770;49.272;11.070;2024-02-26T09:45:56;96137.81;;;9.88;58.08
16030;BME280;34770;49.272;11.070;2024-02-26T09:48:22;96147.31;;;9.84;57.93
16030;BME280;34770;49.272;11.070;2024-02-26T09:50:49;96164.72;;;9.89;56.97
16030;BME280;34770;49.272;11.070;2024-02-26T09:53:14;96160.69;;;9.69;56.74
16030;BME280;34770;49.272;11.070;2024-02-26T09:55:40;96158.50;;;9.65;56.63
16030;BME280;34770;49.272;11.070;2024-02-26T09:58:06;96156.66;;;9.65;57.73
16030;BME280;34770;49.272;11.070;2024-02-26T10:00:37;96147.72;;;9.49;57.84
16030;BME280;34770;49.272;11.070;2024-02-26T10:03:09;96156.81;;;9.48;57.50
16030;BME280;34770;49.272;11.070;2024-02-26T10:05:39;96153.47;;;9.46;56.85
16030;BME280;34770;49.272;11.070;2024-02-26T10:08:06;96141.81;;;9.29;57.80
16030;BME280;34770;49.272;11.070;2024-02-26T10:10:33;96151.75;;;9.45;57.45
16030;BME280;34770;49.272;11.070;2024-02-26T10:12:59;96158.53;;;9.49;57.10
16030;BME280;34770;49.272;11.070;2024-02-26T10:15:26;96157.47;;;9.58;57.71
16030;BME280;34770;49.272;11.070;2024-02-26T10:17:51;96166.44;;;9.58;57.05
16030;BME280;34770;49.272;11.070;2024-02-26T10:20:17;96174.19;;;9.77;56.39
16030;BME280;34770;49.272;11.070;2024-02-26T10:22:44;96171.00;;;9.82;56.53
16030;BME280;34770;49.272;11.070;2024-02-26T10:25:10;96166.06;;;9.94;56.25
16030;BME280;34770;49.272;11.070;2024-02-26T10:27:36;96171.63;;;10.00;56.76
16030;BME280;34770;49.272;11.070;2024-02-26T10:32:46;96180.50;;;10.41;55.88
16030;BME280;34770;49.272;11.070;2024-02-26T10:35:13;96186.00;;;10.56;54.74
16030;BME280;34770;49.272;11.070;2024-02-26T10:37:40;96180.31;;;10.81;55.06
16030;BME280;34770;49.272;11.070;2024-02-26T10:40:12;96182.75;;;10.99;53.77
16030;BME280;34770;49.272;11.070;2024-02-26T10:42:38;96184.16;;;11.18;54.31
16030;BME280;34770;49.272;11.070;2024-02-26T10:45:07;96178.66;;;11.48;53.88
16030;BME280;34770;49.272;11.070;2024-02-26T10:47:37;96169.16;;;11.52;52.41
16030;BME280;34770;49.272;11.070;2024-02-26T10:50:05;96158.81;;;11.33;51.00
16030;BME280;34770;49.272;11.070;2024-02-26T10:52:33;96182.16;;;11.34;51.03
16030;BME280;34770;49.272;11.070;2024-02-26T10:55:03;96172.78;;;11.22;51.65
16030;BME280;34770;49.272;11.070;2024-02-26T10:57:37;96183.69;;;11.14;53.01
16030;BME280;34770;49.272;11.070;2024-02-26T11:00:05;96190.25;;;11.20;52.82
16030;BME280;34770;49.272;11.070;2024-02-26T11:02:33;96191.75;;;11.22;52.80
16030;BME280;34770;49.272;11.070;2024-02-26T11:05:04;96184.88;;;11.57;52.94
16030;BME280;34770;49.272;11.070;2024-02-26T11:07:31;96185.84;;;11.87;52.55
16030;BME280;34770;49.272;11.070;2024-02-26T11:09:59;96184.41;;;11.76;51.15
16030;BME280;34770;49.272;11.070;2024-02-26T11:12:26;96191.72;;;11.90;50.09
16030;BME280;34770;49.272;11.070;2024-02-26T11:14:55;96187.09;;;12.13;49.71
16030;BME280;34770;49.272;11.070;2024-02-26T11:17:22;96188.53;;;12.39;49.67
16030;BME280;34770;49.272;11.070;2024-02-26T11:19:50;96187.88;;;12.37;49.10
16030;BME280;34770;49.272;11.070;2024-02-26T11:22:17;96192.19;;;12.46;48.51
16030;BME280;34770;49.272;11.070;2024-02-26T11:24:43;96179.41;;;12.75;48.92
16030;BME280;34770;49.272;11.070;2024-02-26T11:27:11;96181.19;;;12.83;48.31
16030;BME280;34770;49.272;11.070;2024-02-26T11:29:44;96182.50;;;12.87;47.18
16030;BME280;34770;49.272;11.070;2024-02-26T11:32:12;96191.25;;;12.68;46.61
16030;BME280;34770;49.272;11.070;2024-02-26T11:34:38;96186.72;;;12.75;46.17
16030;BME280;34770;49.272;11.070;2024-02-26T11:37:11;96188.69;;;12.66;46.60
16030;BME280;34770;49.272;11.070;2024-02-26T11:39:40;96177.09;;;12.58;46.72
16030;BME280;34770;49.272;11.070;2024-02-26T11:42:09;96177.75;;;12.60;46.04
16030;BME280;34770;49.272;11.070;2024-02-26T11:44:35;96177.06;;;12.87;45.32
16030;BME280;34770;49.272;11.070;2024-02-26T11:47:22;96180.00;;;13.21;44.59
16030;BME280;34770;49.272;11.070;2024-02-26T11:49:48;96177.63;;;13.54;44.04
16030;BME280;34770;49.272;11.070;2024-02-26T11:52:14;96173.69;;;13.57;43.78
16030;BME280;34770;49.272;11.070;2024-02-26T11:57:43;96184.94;;;13.96;44.60
16030;BME280;34770;49.272;11.070;2024-02-26T12:00:12;96175.72;;;13.97;44.77
16030;BME280;34770;49.272;11.070;2024-02-26T12:05:19;96177.88;;;14.64;41.34
16030;BME280;34770;49.272;11.070;2024-02-26T12:07:52;96176.34;;;14.20;42.67
16030;BME280;34770;49.272;11.070;2024-02-26T12:12:47;96168.75;;;14.43;43.21
16030;BME280;34770;49.272;11.070;2024-02-26T12:15:15;96160.22;;;14.53;42.13
16030;BME280;34770;49.272;11.070;2024-02-26T12:17:41;96170.31;;;15.00;42.34
16030;BME280;34770;49.272;11.070;2024-02-26T12:20:13;96169.41;;;14.86;40.23
16030;BME280;34770;49.272;11.070;2024-02-26T12:22:44;96168.69;;;14.71;40.47
16030;BME280;34770;49.272;11.070;2024-02-26T12:25:10;96181.97;;;14.81;41.43
16030;BME280;34770;49.272;11.070;2024-02-26T12:27:36;96176.22;;;15.03;40.96
16030;BME280;34770;49.272;11.070;2024-02-26T12:30:03;96187.72;;;14.99;40.66
16030;BME280;34770;49.272;11.070;2024-02-26T12:32:28;96194.28;;;14.70;41.15
16030;BME280;34770;49.272;11.070;2024-02-26T12:34:54;96181.69;;;14.69;40.89
16030;BME280;34770;49.272;11.070;2024-02-26T12:37:20;96180.44;;;14.72;41.08
16030;BME280;34770;49.272;11.070;2024-02-26T12:39:46;96173.22;;;14.92;41.02
16030;BME280;34770;49.272;11.070;2024-02-26T12:42:11;96164.66;;;15.01;40.03
16030;BME280;34770;49.272;11.070;2024-02-26T12:44:37;96171.84;;;15.22;39.44
16030;BME280;34770;49.272;11.070;2024-02-26T12:47:03;96188.72;;;15.45;40.01
16030;BME280;34770;49.272;11.070;2024-02-26T12:49:29;96170.22;;;15.34;39.64
16030;BME280;34770;49.272;11.070;2024-02-26T12:51:55;96192.66;;;15.23;39.86
16030;BME280;34770;49.272;11.070;2024-02-26T12:54:27;96189.03;;;15.16;40.64
16030;BME280;34770;49.272;11.070;2024-02-26T12:56:53;96183.72;;;15.55;38.00
16030;BME280;34770;49.272;11.070;2024-02-26T12:59:19;96193.91;;;15.94;38.33
16030;BME280;34770;49.272;11.070;2024-02-26T13:01:45;96195.41;;;15.30;40.03
16030;BME280;34770;49.272;11.070;2024-02-26T13:04:10;96188.69;;;15.39;40.67